Time;durP1;ratioP1;P1;durP2;ratioP2;P2;SDS_P1;SDS_P2;PMS_P1;PMS_P2;Temp;Humidity;BMP_temperature;BMP_pressure;BME280_temperature;BME280_humidity;BME280_pressure;Samples;Min_cycle;Max_cycle;Signal;HPM_P1;HPM_P2
2024/01/14 00:01:53;;;;;;;28.38;12.88;;;1.20;99.90;;;;;;5091148;28;20299;-56
2024/01/14 00:04:21;;;;;;;27.77;13.55;;;1.20;99.90;;;;;;5093233;28;20200;-55
2024/01/14 00:06:49;;;;;;;26.38;14.40;;;1.20;99.90;;;;;;5095150;28;20212;-55
2024/01/14 00:09:19;;;;;;;24.40;13.60;;;1.20;99.90;;;;;;5095144;28;20273;-56
2024/01/14 00:11:48;;;;;;;27.83;13.23;;;1.20;99.90;;;;;;5095147;28;20208;-55
2024/01/14 00:14:16;;;;;;;26.17;13.80;;;1.20;99.90;;;;;;5094956;28;20216;-55
2024/01/14 00:16:44;;;;;;;23.15;13.85;;;1.30;99.90;;;;;;5094961;28;20565;-56
2024/01/14 00:19:12;;;;;;;24.02;13.43;;;1.30;99.90;;;;;;5095188;28;20240;-56
2024/01/14 00:21:40;;;;;;;28.92;13.45;;;1.30;99.90;;;;;;5094701;28;20661;-56
2024/01/14 00:24:08;;;;;;;23.63;13.05;;;1.20;99.90;;;;;;5094926;28;20283;-56
2024/01/14 00:26:37;;;;;;;23.65;13.73;;;1.20;99.90;;;;;;5094654;28;20207;-55
2024/01/14 00:29:05;;;;;;;25.15;13.80;;;1.30;99.90;;;;;;5094939;28;20209;-55
2024/01/14 00:31:33;;;;;;;25.40;13.25;;;1.30;99.90;;;;;;5086350;28;20315;-57
2024/01/14 00:34:01;;;;;;;23.63;13.80;;;1.30;99.90;;;;;;5094673;28;20224;-57
2024/01/14 00:36:29;;;;;;;27.58;13.90;;;1.40;99.90;;;;;;5092488;28;20205;-55
2024/01/14 00:38:57;;;;;;;26.92;13.77;;;1.40;99.90;;;;;;5073972;28;20717;-56
2024/01/14 00:41:25;;;;;;;25.85;13.95;;;1.40;99.90;;;;;;5074126;28;20310;-57
2024/01/14 00:43:54;;;;;;;25.20;13.88;;;1.40;99.90;;;;;;5074215;28;20205;-55
2024/01/14 00:46:23;;;;;;;25.05;13.82;;;1.40;99.90;;;;;;5074350;28;20224;-56
2024/01/14 00:48:51;;;;;;;26.75;14.43;;;1.30;99.90;;;;;;5074061;28;20307;-55
2024/01/14 00:51:19;;;;;;;22.33;12.93;;;1.30;99.90;;;;;;5073919;28;20308;-56
2024/01/14 00:53:47;;;;;;;25.55;13.25;;;1.20;99.90;;;;;;5073709;28;20231;-56
2024/01/14 00:56:15;;;;;;;28.77;13.73;;;1.20;99.90;;;;;;5074057;28;20296;-55
2024/01/14 00:58:43;;;;;;;29.98;14.35;;;1.20;99.90;;;;;;5073827;28;20731;-56
2024/01/14 01:01:12;;;;;;;23.27;13.13;;;1.20;99.90;;;;;;5073605;28;20265;-55
2024/01/14 01:03:40;;;;;;;27.90;14.35;;;1.30;99.90;;;;;;5073721;28;20205;-55
2024/01/14 01:06:08;;;;;;;26.73;14.23;;;1.30;99.90;;;;;;5073870;28;20197;-56
2024/01/14 01:08:37;;;;;;;25.25;14.05;;;1.30;99.90;;;;;;5073523;28;20221;-56
2024/01/14 01:11:05;;;;;;;24.80;14.10;;;1.30;99.90;;;;;;5073592;28;20282;-56
2024/01/14 01:13:33;;;;;;;23.80;12.57;;;1.20;99.90;;;;;;5073408;28;20671;-56
2024/01/14 01:16:01;;;;;;;24.63;13.52;;;1.30;99.90;;;;;;5073070;28;20725;-56
2024/01/14 01:18:31;;;;;;;24.00;13.85;;;1.30;99.90;;;;;;5073469;28;20296;-55
2024/01/14 01:20:59;;;;;;;24.13;12.57;;;1.30;99.90;;;;;;5073057;28;20236;-56
2024/01/14 01:23:27;;;;;;;27.92;15.00;;;1.30;99.90;;;;;;5073592;28;20202;-56
2024/01/14 01:25:55;;;;;;;25.17;13.63;;;1.40;99.90;;;;;;5073749;28;20639;-57
2024/01/14 01:28:23;;;;;;;28.45;13.52;;;1.40;99.90;;;;;;5073307;28;20292;-55
2024/01/14 01:30:51;;;;;;;27.90;14.15;;;1.30;99.90;;;;;;5073159;28;20757;-55
2024/01/14 01:33:19;;;;;;;30.40;13.90;;;1.30;99.90;;;;;;5073047;28;20734;-56
2024/01/14 01:35:48;;;;;;;30.50;14.73;;;1.20;99.90;;;;;;5073379;28;20213;-56
2024/01/14 01:38:16;;;;;;;27.75;14.85;;;1.20;99.90;;;;;;5073320;28;20208;-55
2024/01/14 01:40:46;;;;;;;25.77;13.48;;;1.20;99.90;;;;;;5073012;28;20265;-55
2024/01/14 01:43:14;;;;;;;30.02;15.27;;;1.20;99.90;;;;;;5085174;28;20215;-57
2024/01/14 01:45:42;;;;;;;29.25;15.02;;;1.20;99.90;;;;;;5093385;28;20265;-56
2024/01/14 01:48:09;;;;;;;33.50;16.25;;;1.20;99.90;;;;;;5092992;28;20236;-55
2024/01/14 01:50:37;;;;;;;31.52;16.00;;;1.20;99.90;;;;;;5093006;28;20252;-56
2024/01/14 01:53:07;;;;;;;30.77;15.63;;;1.20;99.90;;;;;;5093177;28;20265;-56
2024/01/14 01:55:35;;;;;;;32.50;15.38;;;1.10;99.90;;;;;;5093153;28;20263;-55
2024/01/14 01:58:03;;;;;;;33.33;16.15;;;1.10;99.90;;;;;;5092925;28;20204;-55
2024/01/14 02:00:34;;;;;;;34.95;16.45;;;1.10;99.90;;;;;;5092420;28;20781;-55
2024/01/14 02:03:03;;;;;;;34.80;16.20;;;1.10;99.90;;;;;;5092800;28;20212;-56
2024/01/14 02:05:32;;;;;;;32.38;16.45;;;1.10;99.90;;;;;;5093054;28;20561;-56
2024/01/14 02:08:00;;;;;;;31.50;15.68;;;1.10;99.90;;;;;;5092780;28;20200;-57
2024/01/14 02:10:29;;;;;;;33.55;16.33;;;1.10;99.90;;;;;;5092611;28;20224;-56
2024/01/14 02:12:58;;;;;;;29.58;15.00;;;1.00;99.90;;;;;;5092575;28;20228;-55
2024/01/14 02:15:26;;;;;;;31.55;15.93;;;1.10;99.90;;;;;;5092579;28;20230;-56
2024/01/14 02:17:54;;;;;;;32.78;15.63;;;1.00;99.90;;;;;;5092660;28;20201;-56
2024/01/14 02:20:22;;;;;;;33.63;15.65;;;1.10;99.90;;;;;;5079525;28;20791;-56
2024/01/14 02:22:50;;;;;;;30.35;15.55;;;1.10;99.90;;;;;;5072238;28;20292;-57
2024/01/14 02:25:20;;;;;;;31.15;14.65;;;1.10;99.90;;;;;;5072318;28;20194;-57
2024/01/14 02:27:49;;;;;;;32.08;15.52;;;1.10;99.90;;;;;;5080944;28;20236;-56
2024/01/14 02:30:17;;;;;;;30.25;14.95;;;1.10;99.90;;;;;;5083483;28;20256;-57
2024/01/14 02:32:44;;;;;;;29.75;15.32;;;1.10;99.90;;;;;;5072255;28;20213;-57
2024/01/14 02:35:13;;;;;;;30.17;15.00;;;1.10;99.90;;;;;;5072111;28;20237;-57
2024/01/14 02:37:43;;;;;;;32.42;15.45;;;1.10;99.90;;;;;;5073383;28;20687;-56
2024/01/14 02:40:12;;;;;;;30.02;14.68;;;1.10;99.90;;;;;;5072469;28;20252;-56
2024/01/14 02:42:41;;;;;;;32.97;15.15;;;1.10;99.90;;;;;;5071899;28;20208;-54
2024/01/14 02:45:10;;;;;;;30.05;14.07;;;1.20;99.90;;;;;;5071948;28;20267;-55
2024/01/14 02:47:37;;;;;;;28.02;14.93;;;1.20;99.90;;;;;;5071735;28;20228;-54
2024/01/14 02:50:06;;;;;;;28.92;13.93;;;1.20;99.90;;;;;;5071370;28;20225;-55
2024/01/14 02:52:34;;;;;;;29.98;15.32;;;1.20;99.90;;;;;;5071871;28;20227;-54
2024/01/14 02:55:03;;;;;;;36.45;15.93;;;1.20;99.90;;;;;;5071814;28;20330;-55
2024/01/14 02:57:32;;;;;;;38.58;16.48;;;1.20;99.90;;;;;;5071570;28;20243;-55
2024/01/14 03:00:01;;;;;;;32.60;16.50;;;1.20;99.90;;;;;;5071311;28;20237;-55
2024/01/14 03:02:29;;;;;;;33.95;16.20;;;1.20;99.90;;;;;;5071485;28;20236;-55
2024/01/14 03:04:57;;;;;;;33.58;16.02;;;1.10;99.90;;;;;;5071798;28;20251;-55
2024/01/14 03:07:25;;;;;;;33.90;16.25;;;1.10;99.90;;;;;;5071718;28;20233;-54
2024/01/14 03:09:53;;;;;;;35.33;16.85;;;1.10;99.90;;;;;;5071310;28;20316;-55
2024/01/14 03:12:21;;;;;;;36.92;17.08;;;1.10;99.90;;;;;;5071549;28;20273;-54
2024/01/14 03:14:48;;;;;;;32.47;17.02;;;1.10;99.90;;;;;;5071499;28;20653;-55
2024/01/14 03:17:18;;;;;;;33.33;16.23;;;1.20;99.90;;;;;;5071266;28;20205;-55
2024/01/14 03:19:46;;;;;;;31.10;15.23;;;1.20;99.90;;;;;;5071221;28;20639;-56
2024/01/14 03:22:14;;;;;;;31.88;16.13;;;1.20;99.90;;;;;;5071712;28;20598;-55
2024/01/14 03:24:42;;;;;;;34.58;16.70;;;1.20;99.90;;;;;;5071617;28;20291;-56
2024/01/14 03:27:10;;;;;;;32.22;16.05;;;1.20;99.90;;;;;;5071226;28;20248;-57
2024/01/14 03:29:38;;;;;;;35.40;16.77;;;1.20;99.90;;;;;;5071057;28;20201;-56
2024/01/14 03:32:06;;;;;;;41.10;18.45;;;1.20;99.90;;;;;;5076885;28;20273;-56
2024/01/14 03:34:36;;;;;;;37.25;17.75;;;1.20;99.90;;;;;;5071491;28;20663;-57
2024/01/14 03:37:05;;;;;;;36.30;18.27;;;1.20;99.90;;;;;;5079219;28;20205;-55
2024/01/14 03:39:32;;;;;;;42.88;18.75;;;1.20;99.90;;;;;;5074960;28;20251;-55
2024/01/14 03:42:01;;;;;;;38.92;17.98;;;1.10;99.90;;;;;;5081502;28;20640;-55
2024/01/14 03:44:28;;;;;;;39.55;17.33;;;1.10;99.90;;;;;;5075393;28;20288;-56
2024/01/14 03:46:56;;;;;;;32.33;16.38;;;1.00;99.90;;;;;;5075454;28;20205;-55
2024/01/14 03:49:24;;;;;;;33.50;16.42;;;1.00;99.90;;;;;;5074416;28;20288;-55
2024/01/14 03:51:53;;;;;;;35.38;17.02;;;1.00;99.90;;;;;;5075377;28;20209;-56
2024/01/14 03:54:21;;;;;;;36.15;16.88;;;0.90;99.90;;;;;;5074974;28;20668;-54
2024/01/14 03:56:49;;;;;;;31.92;16.98;;;0.90;99.90;;;;;;5082823;28;20213;-54
2024/01/14 03:59:17;;;;;;;35.08;17.20;;;0.90;99.90;;;;;;5077846;28;20666;-54
2024/01/14 04:01:45;;;;;;;38.25;18.00;;;0.90;99.90;;;;;;5095125;28;20229;-55
2024/01/14 04:04:13;;;;;;;33.25;16.50;;;0.80;99.90;;;;;;5095090;28;20209;-55
2024/01/14 04:06:41;;;;;;;38.28;17.15;;;0.80;99.90;;;;;;5095235;28;20204;-55
2024/01/14 04:09:10;;;;;;;35.03;16.45;;;0.90;99.90;;;;;;5094641;28;20204;-55
2024/01/14 04:11:38;;;;;;;35.17;16.02;;;0.80;99.90;;;;;;5095163;28;20232;-56
2024/01/14 04:14:07;;;;;;;30.83;15.60;;;0.80;99.90;;;;;;5095013;28;20311;-54
2024/01/14 04:16:38;;;;;;;35.33;17.00;;;0.90;99.90;;;;;;5094055;28;20216;-56
2024/01/14 04:19:06;;;;;;;29.17;15.88;;;0.90;99.90;;;;;;5076028;28;20209;-54
2024/01/14 04:21:34;;;;;;;30.85;15.90;;;1.00;99.90;;;;;;5074317;28;20232;-54
2024/01/14 04:24:02;;;;;;;36.17;15.50;;;1.00;99.90;;;;;;5074562;28;20202;-55
2024/01/14 04:26:32;;;;;;;32.72;15.90;;;1.00;99.90;;;;;;5074579;28;20219;-54
2024/01/14 04:29:00;;;;;;;35.47;16.40;;;0.90;99.90;;;;;;5073697;28;20591;-54
2024/01/14 04:31:28;;;;;;;35.17;15.90;;;0.90;99.90;;;;;;5074336;28;20241;-54
2024/01/14 04:33:56;;;;;;;36.85;16.30;;;0.80;99.90;;;;;;5074175;28;20208;-55
2024/01/14 04:36:24;;;;;;;34.85;16.27;;;0.80;99.90;;;;;;5074339;28;20588;-54
2024/01/14 04:38:52;;;;;;;32.17;16.00;;;0.70;99.90;;;;;;5074419;28;20205;-55
2024/01/14 04:41:20;;;;;;;31.42;15.45;;;0.70;99.90;;;;;;5076329;28;20225;-54
2024/01/14 04:43:49;;;;;;;35.22;16.25;;;0.60;99.90;;;;;;5074000;28;20425;-54
2024/01/14 04:46:18;;;;;;;30.38;15.25;;;0.50;99.90;;;;;;5077140;28;20236;-56
2024/01/14 04:48:46;;;;;;;34.55;16.02;;;0.50;99.90;;;;;;5073655;28;20205;-55
2024/01/14 04:51:14;;;;;;;35.42;15.85;;;0.50;99.90;;;;;;5073341;28;20283;-55
2024/01/14 04:53:42;;;;;;;33.58;15.20;;;0.40;99.90;;;;;;5074586;28;20205;-54
2024/01/14 04:56:10;;;;;;;29.73;14.45;;;0.40;99.90;;;;;;5073889;28;20227;-55
2024/01/14 04:58:39;;;;;;;40.00;16.38;;;0.40;99.90;;;;;;5073966;28;20592;-52
2024/01/14 05:01:08;;;;;;;36.05;16.08;;;0.40;99.90;;;;;;5074143;28;20236;-52
2024/01/14 05:03:36;;;;;;;36.63;15.45;;;0.50;99.90;;;;;;5073719;28;20300;-52
2024/01/14 05:06:05;;;;;;;32.95;14.77;;;0.50;99.90;;;;;;5073769;28;20288;-52
2024/01/14 05:08:33;;;;;;;31.25;14.65;;;0.50;99.90;;;;;;5073885;28;20209;-52
2024/01/14 05:11:01;;;;;;;33.38;15.32;;;0.50;99.90;;;;;;5073508;28;20229;-52
2024/01/14 05:13:29;;;;;;;34.03;15.38;;;0.60;99.90;;;;;;5073559;28;20240;-52
2024/01/14 05:15:57;;;;;;;35.28;15.25;;;0.60;99.90;;;;;;5073449;28;20260;-56
2024/01/14 05:18:26;;;;;;;29.73;14.77;;;0.50;99.90;;;;;;5073302;28;20205;-55
2024/01/14 05:20:54;;;;;;;36.30;15.35;;;0.50;99.90;;;;;;5076347;28;20227;-56
2024/01/14 05:23:22;;;;;;;34.72;13.95;;;0.50;99.90;;;;;;5073895;28;20205;-57
2024/01/14 05:25:50;;;;;;;30.70;15.18;;;0.50;99.90;;;;;;5077953;28;20293;-56
2024/01/14 05:28:18;;;;;;;38.08;15.00;;;0.50;99.90;;;;;;5073213;28;20262;-57
2024/01/14 05:30:47;;;;;;;29.75;14.50;;;0.60;99.90;;;;;;5073285;28;20260;-57
2024/01/14 05:33:15;;;;;;;34.15;15.27;;;0.60;99.90;;;;;;5073361;28;20209;-58
2024/01/14 05:35:44;;;;;;;32.63;14.25;;;0.60;99.90;;;;;;5073390;28;20267;-57
2024/01/14 05:38:13;;;;;;;30.77;15.25;;;0.50;99.90;;;;;;5073623;28;20233;-56
2024/01/14 05:40:41;;;;;;;37.00;16.40;;;0.50;99.90;;;;;;5077556;28;20245;-55
2024/01/14 05:43:08;;;;;;;37.72;15.90;;;0.50;99.90;;;;;;5073249;28;20213;-56
2024/01/14 05:45:36;;;;;;;32.47;15.35;;;0.50;99.90;;;;;;5072980;28;20730;-55
2024/01/14 05:48:05;;;;;;;34.30;15.80;;;0.50;99.90;;;;;;5072736;28;20296;-57
2024/01/14 05:50:33;;;;;;;35.88;16.27;;;0.50;99.90;;;;;;5072142;28;20236;-56
2024/01/14 05:53:03;;;;;;;36.58;16.45;;;0.50;99.90;;;;;;5072526;28;20237;-55
2024/01/14 05:55:30;;;;;;;42.45;17.95;;;0.50;99.90;;;;;;5083120;28;20229;-55
2024/01/14 05:57:58;;;;;;;39.47;17.38;;;0.50;99.90;;;;;;5072908;28;20300;-55
2024/01/14 06:00:25;;;;;;;34.88;16.80;;;0.50;99.90;;;;;;5078092;28;20232;-55
2024/01/14 06:02:53;;;;;;;37.15;17.10;;;0.50;99.90;;;;;;5072698;28;20626;-56
2024/01/14 06:05:21;;;;;;;36.92;17.75;;;0.40;99.90;;;;;;5073722;28;20629;-55
2024/01/14 06:07:51;;;;;;;40.35;17.13;;;0.40;99.90;;;;;;5072331;28;20216;-55
2024/01/14 06:10:20;;;;;;;38.85;18.60;;;0.40;99.90;;;;;;5079504;28;20336;-56
2024/01/14 06:12:48;;;;;;;39.88;19.08;;;0.30;99.90;;;;;;5081697;28;20205;-55
2024/01/14 06:15:16;;;;;;;44.75;19.50;;;0.30;99.90;;;;;;5076405;28;20208;-57
2024/01/14 06:17:44;;;;;;;45.20;19.17;;;0.20;99.90;;;;;;5072274;28;20225;-55
2024/01/14 06:20:12;;;;;;;43.95;19.25;;;0.20;99.90;;;;;;5087190;28;20231;-55
2024/01/14 06:22:40;;;;;;;55.78;23.92;;;0.20;99.90;;;;;;5078734;28;20213;-56
2024/01/14 06:25:09;;;;;;;48.10;22.42;;;0.10;99.90;;;;;;5072911;28;20209;-55
2024/01/14 06:27:38;;;;;;;59.20;23.48;;;0.10;99.90;;;;;;5072271;28;20205;-55
2024/01/14 06:30:08;;;;;;;59.10;25.33;;;0.10;99.90;;;;;;5071868;28;20225;-56
2024/01/14 06:32:36;;;;;;;62.33;25.92;;;0.00;99.90;;;;;;5072132;28;20205;-56
2024/01/14 06:35:04;;;;;;;62.30;25.02;;;0.00;99.90;;;;;;5076153;28;20215;-56
2024/01/14 06:37:32;;;;;;;64.25;26.20;;;0.00;99.90;;;;;;5072055;28;20260;-55
2024/01/14 06:40:00;;;;;;;64.13;26.35;;;0.00;99.90;;;;;;5071958;28;20236;-55
2024/01/14 06:42:28;;;;;;;68.90;28.15;;;0.00;99.90;;;;;;5071898;28;20298;-57
2024/01/14 06:44:57;;;;;;;63.42;26.08;;;0.00;99.90;;;;;;5071934;28;20209;-56
2024/01/14 06:47:25;;;;;;;65.13;25.27;;;0.10;99.90;;;;;;5071654;28;20204;-56
2024/01/14 06:49:54;;;;;;;60.35;25.38;;;0.10;99.90;;;;;;5071881;28;20229;-55
2024/01/14 06:52:37;;;;;;;55.88;25.88;;;0.00;99.90;;;;;;5080053;28;20281;-55
2024/01/14 06:55:06;;;;;;;64.80;26.15;;;0.00;99.90;;;;;;5086427;28;20257;-56
2024/01/14 06:57:34;;;;;;;63.45;27.15;;;0.00;99.90;;;;;;5077860;28;20260;-55
2024/01/14 07:00:07;;;;;;;60.50;24.90;;;0.00;99.90;;;;;;5079310;28;20245;-56
2024/01/14 07:02:36;;;;;;;66.28;27.00;;;0.00;99.90;;;;;;5081474;28;20207;-56
2024/01/14 07:05:05;;;;;;;61.63;24.90;;;-0.10;99.90;;;;;;5083813;28;20201;-57
2024/01/14 07:07:33;;;;;;;61.17;26.45;;;-0.10;99.90;;;;;;5071532;28;20193;-56
2024/01/14 07:10:00;;;;;;;59.03;25.65;;;-0.10;99.90;;;;;;5071399;28;20608;-57
2024/01/14 07:12:28;;;;;;;59.50;25.27;;;-0.20;99.90;;;;;;5070789;28;20293;-56
2024/01/14 07:14:56;;;;;;;63.65;25.90;;;-0.10;99.90;;;;;;5071806;28;20205;-57
2024/01/14 07:17:26;;;;;;;61.28;25.48;;;-0.10;99.90;;;;;;5075923;28;20225;-56
2024/01/14 07:20:14;;;;;;;61.50;25.00;;;-0.20;99.90;;;;;;5080643;28;20235;-56
2024/01/14 07:22:42;;;;;;;60.33;24.55;;;-0.10;99.90;;;;;;5071314;28;20237;-56
2024/01/14 07:25:10;;;;;;;54.70;23.00;;;-0.10;99.90;;;;;;5071353;28;20213;-56
2024/01/14 07:27:38;;;;;;;57.35;24.48;;;-0.10;99.90;;;;;;5071218;28;20293;-56
2024/01/14 07:30:07;;;;;;;55.65;24.55;;;-0.10;99.90;;;;;;5071144;28;20229;-56
2024/01/14 07:32:37;;;;;;;57.58;25.00;;;-0.10;99.90;;;;;;5078942;28;20231;-56
2024/01/14 07:35:05;;;;;;;55.85;24.45;;;-0.10;99.90;;;;;;5081383;28;20295;-56
2024/01/14 07:37:34;;;;;;;58.28;25.70;;;-0.10;99.90;;;;;;5077329;28;20629;-61
2024/01/14 07:40:02;;;;;;;59.78;24.80;;;0.00;99.90;;;;;;5083759;28;20618;-57
2024/01/14 07:42:29;;;;;;;49.75;21.95;;;0.00;99.90;;;;;;5071122;28;20209;-58
2024/01/14 07:44:57;;;;;;;59.63;24.67;;;0.00;99.90;;;;;;5071391;28;20197;-56
2024/01/14 07:47:25;;;;;;;57.10;23.35;;;0.00;99.90;;;;;;5076032;28;20577;-57
2024/01/14 07:49:55;;;;;;;57.00;21.90;;;0.00;99.90;;;;;;5080216;28;20236;-56
2024/01/14 07:52:22;;;;;;;56.33;22.98;;;0.00;99.90;;;;;;5086726;28;20207;-56
2024/01/14 07:54:50;;;;;;;58.78;23.80;;;0.00;99.90;;;;;;5071342;28;20266;-56
2024/01/14 07:57:18;;;;;;;54.17;23.83;;;0.00;99.90;;;;;;5072454;28;20329;-54
2024/01/14 07:59:46;;;;;;;54.70;23.30;;;0.00;99.90;;;;;;5082251;28;20228;-54
2024/01/14 08:02:15;;;;;;;59.88;22.63;;;-0.10;99.90;;;;;;5083487;28;20242;-54
2024/01/14 08:04:44;;;;;;;51.20;21.98;;;-0.10;99.90;;;;;;5078467;28;20212;-54
2024/01/14 08:07:14;;;;;;;58.97;22.88;;;-0.10;99.90;;;;;;5088277;28;20246;-54
2024/01/14 08:09:42;;;;;;;52.22;22.52;;;-0.10;99.90;;;;;;5079316;28;20266;-54
2024/01/14 08:12:10;;;;;;;59.60;23.20;;;-0.10;99.90;;;;;;5071368;28;20207;-58
2024/01/14 08:14:39;;;;;;;51.40;21.30;;;0.00;99.90;;;;;;5071110;28;20212;-59
2024/01/14 08:17:07;;;;;;;53.88;22.48;;;0.00;99.90;;;;;;5086968;28;20248;-60
2024/01/14 08:19:34;;;;;;;54.00;23.80;;;0.00;99.90;;;;;;5078486;28;20275;-58
2024/01/14 08:22:03;;;;;;;53.78;22.58;;;0.00;99.90;;;;;;5080749;28;20216;-59
2024/01/14 08:24:33;;;;;;;58.63;23.92;;;0.00;99.90;;;;;;5076760;28;20284;-59
2024/01/14 08:27:01;;;;;;;57.83;21.45;;;0.00;99.90;;;;;;5074682;28;20209;-60
2024/01/14 08:29:29;;;;;;;52.65;21.35;;;0.00;99.90;;;;;;5074735;28;20248;-58
2024/01/14 08:31:57;;;;;;;55.03;21.75;;;0.00;99.90;;;;;;5075204;28;20634;-58
2024/01/14 08:34:26;;;;;;;55.38;22.40;;;0.00;99.90;;;;;;5074542;28;20209;-57
2024/01/14 08:36:54;;;;;;;55.75;20.85;;;0.00;99.90;;;;;;5075294;28;20247;-58
2024/01/14 08:39:21;;;;;;;53.80;22.17;;;0.00;99.90;;;;;;5074404;28;20706;-57
2024/01/14 08:41:51;;;;;;;55.63;22.45;;;0.00;99.90;;;;;;5074632;28;20236;-57
2024/01/14 08:44:19;;;;;;;53.92;21.65;;;0.00;99.90;;;;;;5074176;28;20209;-56
2024/01/14 08:46:54;;;;;;;53.00;20.58;;;0.00;99.90;;;;;;5074206;28;20291;-56
2024/01/14 08:49:24;;;;;;;48.80;20.73;;;0.00;99.90;;;;;;5073950;28;20201;-56
2024/01/14 08:51:52;;;;;;;48.10;20.48;;;0.00;99.90;;;;;;5075726;28;20240;-56
2024/01/14 08:54:21;;;;;;;51.88;20.95;;;0.00;99.90;;;;;;5074350;28;20670;-58
2024/01/14 08:56:50;;;;;;;45.53;19.58;;;0.00;99.90;;;;;;5074614;28;20212;-58
2024/01/14 08:59:18;;;;;;;51.22;20.88;;;0.00;99.90;;;;;;5074227;28;20225;-57
2024/01/14 09:01:46;;;;;;;47.75;20.88;;;0.00;99.90;;;;;;5074395;28;20237;-58
2024/01/14 09:04:14;;;;;;;53.03;20.45;;;-0.10;99.90;;;;;;5075327;28;20252;-58
2024/01/14 09:06:42;;;;;;;52.40;21.23;;;-0.10;99.90;;;;;;5075519;28;20216;-58
2024/01/14 09:09:11;;;;;;;52.67;19.85;;;0.00;99.90;;;;;;5075187;28;20205;-58
2024/01/14 09:11:39;;;;;;;52.08;21.38;;;0.00;99.90;;;;;;5087201;28;20233;-59
2024/01/14 09:14:09;;;;;;;50.38;21.15;;;0.00;99.90;;;;;;5094561;28;20212;-59
2024/01/14 09:16:36;;;;;;;54.15;21.25;;;0.00;99.90;;;;;;5094289;28;20243;-57
2024/01/14 09:19:04;;;;;;;46.53;19.08;;;0.00;99.90;;;;;;5093544;28;20262;-56
2024/01/14 09:21:33;;;;;;;46.78;19.13;;;0.00;99.90;;;;;;5093578;28;20312;-56
2024/01/14 09:24:01;;;;;;;51.00;20.33;;;0.00;99.90;;;;;;5093923;28;20228;-57
2024/01/14 09:26:29;;;;;;;53.80;21.10;;;0.10;99.90;;;;;;5093828;28;20209;-56
2024/01/14 09:28:57;;;;;;;54.53;19.42;;;0.10;99.90;;;;;;5093628;28;20205;-56
2024/01/14 09:31:27;;;;;;;49.40;20.65;;;0.10;99.90;;;;;;5093460;28;20647;-57
2024/01/14 09:33:55;;;;;;;55.53;21.30;;;0.10;99.90;;;;;;5093467;28;20251;-57
2024/01/14 09:36:23;;;;;;;48.65;20.20;;;0.20;99.90;;;;;;5092903;28;20916;-58
2024/01/14 09:38:51;;;;;;;46.45;18.88;;;0.30;99.90;;;;;;5093382;28;20232;-58
2024/01/14 09:41:29;;;;;;;47.20;19.25;;;0.30;99.90;;;;;;5093334;28;20270;-56
2024/01/14 09:43:56;;;;;;;48.97;19.50;;;0.40;99.90;;;;;;5093170;28;20572;-58
2024/01/14 09:46:26;;;;;;;47.72;19.90;;;0.40;99.90;;;;;;5093204;28;20213;-57
2024/01/14 09:48:54;;;;;;;50.30;20.13;;;0.40;99.90;;;;;;5093370;28;20201;-57
2024/01/14 09:51:22;;;;;;;50.35;19.88;;;0.40;99.90;;;;;;5093105;28;20224;-56
2024/01/14 09:53:50;;;;;;;49.67;20.55;;;0.40;99.90;;;;;;5093567;28;20287;-58
2024/01/14 09:56:18;;;;;;;43.92;19.17;;;0.40;99.90;;;;;;5093217;28;20205;-57
2024/01/14 09:58:46;;;;;;;53.22;19.92;;;0.40;99.90;;;;;;5092901;28;20220;-56
2024/01/14 10:01:14;;;;;;;48.35;19.52;;;0.40;99.90;;;;;;5092590;28;20685;-56
2024/01/14 10:03:43;;;;;;;46.75;20.52;;;0.40;99.90;;;;;;5093034;28;20295;-57
2024/01/14 10:06:11;;;;;;;49.03;20.02;;;0.40;99.90;;;;;;5093157;28;20205;-59
2024/01/14 10:08:39;;;;;;;44.38;18.33;;;0.40;99.90;;;;;;5092705;28;20211;-57
2024/01/14 10:11:07;;;;;;;51.63;20.58;;;0.40;99.90;;;;;;5092615;28;20252;-56
2024/01/14 10:13:35;;;;;;;52.53;20.60;;;0.40;99.90;;;;;;5092569;28;20643;-57
2024/01/14 10:16:04;;;;;;;46.63;19.13;;;0.50;99.90;;;;;;5093044;28;20216;-56
2024/01/14 10:18:55;;;;;;;47.45;18.73;;;0.50;99.90;;;;;;5092726;28;20251;-57
2024/01/14 10:21:24;;;;;;;51.30;20.33;;;0.50;99.90;;;;;;5092566;28;20314;-57
2024/01/14 10:23:53;;;;;;;48.83;20.00;;;0.50;99.90;;;;;;5092446;28;20204;-57
2024/01/14 10:26:23;;;;;;;46.80;19.42;;;0.50;99.90;;;;;;5092397;28;20589;-57
2024/01/14 10:28:51;;;;;;;43.25;19.48;;;0.60;99.90;;;;;;5092657;28;20200;-56
2024/01/14 10:31:19;;;;;;;49.20;19.75;;;0.60;99.90;;;;;;5091853;28;20771;-57
2024/01/14 10:33:47;;;;;;;43.78;20.25;;;0.70;99.90;;;;;;5084584;28;20213;-58
2024/01/14 10:36:17;;;;;;;48.20;19.70;;;0.70;99.90;;;;;;5092401;28;20216;-58
2024/01/14 10:38:45;;;;;;;48.13;19.20;;;0.70;99.90;;;;;;5092010;28;20704;-57
2024/01/14 10:41:12;;;;;;;48.33;19.75;;;0.70;99.90;;;;;;5092232;28;20315;-56
2024/01/14 10:43:40;;;;;;;46.60;19.52;;;0.80;99.90;;;;;;5092254;28;20204;-57
2024/01/14 10:46:08;;;;;;;48.75;19.65;;;0.80;99.90;;;;;;5087440;28;20312;-56
2024/01/14 10:48:37;;;;;;;48.95;19.35;;;0.90;99.90;;;;;;5077975;28;20582;-56
2024/01/14 10:51:06;;;;;;;50.08;19.98;;;0.90;99.90;;;;;;5077610;28;20705;-57
2024/01/14 10:53:41;;;;;;;50.47;20.13;;;1.00;99.90;;;;;;5092841;28;20196;-59
2024/01/14 10:56:10;;;;;;;45.88;19.13;;;1.00;99.90;;;;;;5091928;28;20687;-59
2024/01/14 10:58:40;;;;;;;45.25;18.67;;;1.10;99.90;;;;;;5091603;28;20260;-59
2024/01/14 11:01:08;;;;;;;48.47;19.38;;;1.10;99.90;;;;;;5079602;22;20790;-74
2024/01/14 11:03:37;;;;;;;44.60;18.65;;;1.00;99.90;;;;;;5051279;28;20205;-75
2024/01/14 11:06:05;;;;;;;50.40;19.63;;;0.90;99.90;;;;;;5051319;28;20205;-75
2024/01/14 11:08:33;;;;;;;44.70;20.02;;;0.90;99.90;;;;;;5051179;28;20309;-74
2024/01/14 11:11:02;;;;;;;52.40;20.70;;;0.90;99.90;;;;;;5051072;28;20202;-75
2024/01/14 11:13:32;;;;;;;46.80;20.08;;;1.00;99.90;;;;;;5041272;28;20199;-75
2024/01/14 11:16:03;;;;;;;47.20;19.67;;;1.10;99.90;;;;;;5031881;28;20202;-75
2024/01/14 11:18:33;;;;;;;48.78;19.13;;;1.30;99.90;;;;;;5041187;28;20710;-72
2024/01/14 11:21:06;;;;;;;44.33;18.80;;;1.40;99.90;;;;;;5037156;28;20248;-73
2024/01/14 11:23:56;;;;;;;46.85;18.25;;;1.40;99.90;;;;;;5036042;28;20206;-73
2024/01/14 11:26:26;;;;;;;47.15;18.65;;;1.40;99.90;;;;;;5051012;28;20229;-73
2024/01/14 11:28:55;;;;;;;48.42;20.17;;;1.30;99.90;;;;;;5051015;28;20257;-73
2024/01/14 11:31:44;;;;;;;44.60;18.75;;;1.30;99.90;;;;;;5050510;28;20563;-73
2024/01/14 11:34:13;;;;;;;49.35;20.00;;;1.20;99.90;;;;;;5030942;28;20203;-73
2024/01/14 11:36:56;;;;;;;47.45;18.75;;;1.10;99.90;;;;;;5042003;28;20729;-73
2024/01/14 11:39:24;;;;;;;46.78;18.80;;;1.00;99.90;;;;;;5040280;28;20229;-73
2024/01/14 11:41:53;;;;;;;47.55;20.35;;;1.00;99.90;;;;;;5035628;28;20690;-73
2024/01/14 11:44:28;;;;;;;42.90;19.08;;;1.00;99.90;;;;;;5022321;28;20211;-73
2024/01/14 11:46:56;;;;;;;43.15;18.50;;;1.00;99.90;;;;;;5029179;28;20234;-73
2024/01/14 11:49:27;;;;;;;43.30;19.05;;;1.00;99.90;;;;;;5030294;28;20249;-73
2024/01/14 11:51:57;;;;;;;42.60;18.48;;;1.10;99.90;;;;;;5038212;28;20261;-73
2024/01/14 11:54:25;;;;;;;42.75;18.05;;;1.10;99.90;;;;;;5040530;28;20368;-73
2024/01/14 11:56:54;;;;;;;41.88;18.02;;;1.10;99.90;;;;;;5026889;28;20206;-73
2024/01/14 11:59:23;;;;;;;43.03;18.33;;;1.10;99.90;;;;;;5031539;28;20296;-72
2024/01/14 12:01:53;;;;;;;43.75;18.60;;;1.00;99.90;;;;;;5039230;28;20634;-72
2024/01/14 12:04:24;;;;;;;41.40;17.75;;;0.90;99.90;;;;;;5046709;28;20205;-73
2024/01/14 12:06:52;;;;;;;40.97;17.48;;;0.90;99.90;;;;;;5027574;28;20652;-73
2024/01/14 12:09:20;;;;;;;41.83;17.08;;;0.90;99.90;;;;;;5034429;28;20298;-73
2024/01/14 12:11:48;;;;;;;44.72;18.40;;;0.90;99.90;;;;;;5037991;28;20209;-72
2024/01/14 12:14:17;;;;;;;48.63;19.50;;;1.00;99.90;;;;;;5054731;28;20583;-73
2024/01/14 12:16:45;;;;;;;47.70;18.25;;;1.00;99.90;;;;;;5054390;28;20226;-73
2024/01/14 12:19:13;;;;;;;40.40;17.65;;;1.00;99.90;;;;;;5054071;28;20253;-73
2024/01/14 12:21:41;;;;;;;44.90;18.52;;;1.00;99.90;;;;;;5054513;28;20587;-73
2024/01/14 12:24:11;;;;;;;44.05;18.67;;;1.10;99.90;;;;;;5054470;28;20244;-73
2024/01/14 12:26:39;;;;;;;43.92;18.75;;;1.10;99.90;;;;;;5042113;28;20632;-73
2024/01/14 12:29:06;;;;;;;44.17;18.92;;;1.10;99.90;;;;;;5033545;28;20226;-73
2024/01/14 12:31:36;;;;;;;39.70;17.45;;;1.10;99.90;;;;;;5044341;28;20233;-73
2024/01/14 12:34:08;;;;;;;41.53;16.77;;;1.10;99.90;;;;;;5034628;28;20282;-73
2024/01/14 12:36:36;;;;;;;35.92;16.50;;;1.10;99.90;;;;;;5033612;28;20199;-73
2024/01/14 12:39:16;;;;;;;38.28;15.90;;;1.10;99.90;;;;;;5047277;28;20309;-73
2024/01/14 12:41:44;;;;;;;34.47;14.95;;;1.10;99.90;;;;;;5033636;28;20214;-73
2024/01/14 12:44:22;;;;;;;40.85;17.20;;;0.90;99.90;;;;;;5034375;28;20206;-73